Hlavní strana
METAR-TAF:

METAR-TAF

Letiště :

Ramonovo mezinárodní letiště

Ejlat, Izrael

zeměpisná šířka: 29-43-25N, zeměpisná délka: 35-00-41E, výška: 88 m

Aktuální stav počasí

Zpráva byla vytvořena před 1 hodinou a 8 minutami, v 10:50 UTC
Severoseverovýchodní vítr 10 kt
Teplota 23°C
Vlhkost vzduchu 29%
Tlak 1013 hPa
Viditelnost 10 km a více
Žádná oblačnost pod 1500 m, nevyskytují se cumulonimby.

METAR: LLER 081050Z 02010KT CAVOK 23/04 Q1013

Čas: 14:58 (11:58 UTC)

Předpověď počasí

Zpráva byla vytvořena před 52 minutami, v 11:06 UTC
Předpověď platná od 08 v 12 UTC do 09 v 12 UTC
Severní vítr 12 kt
Viditelnost 10 km a více
Žádná oblačnost pod 1500 m, nevyskytují se cumulonimby.
Pravděpodobnost 30%
od 08 v 15 UTC do 08 v 18 UTC
Severoseverovýchodní vítr 18 kt

TAF: LLER 081106Z 0812/0912 01012KT CAVOK PROB30 0815/0818 02018KT TX26/0812Z TN14/0903Z

Stav a předpovědi počasí z více než 4 000 letišť (zprávy METAR a TAF).

Červené a žluté tečky na mapě představují dostupné meteorologické stanice.

Když kurzor umístíte na tečku, zobrazí se název stanice.

Pak kliknutím zobrazíte stav a předpověď počasí.

Chcete-li změnit mapu, kliknutím na zelené tlačítko se znaménkem +mapu přiblížíte, kliknutím na zelené tlačítko se znaménkem – mapu oddálíte a kliknutím na zelené šipky přejdete na sousední mapy.


METAR-TAF: